Shelby County Airport
KEET : now visible

Airfield :











YOU CAN JOIN US ON...

 
LOGIN :

Register | Disclaimer

   EN    FR    IT 

 









Legend :    VFR   Marginal VFR   IFR   Intensive IFR   Very Intensive IFR
Visi :
Ceiling :
>= 8 km
>= 3000ft
5 to 8 km
1000 to 3000 ft
1500m to 5 km
500 to 1000 ft
800 to 1500m
200 to 500 ft
< 800m
< 200 ft
Symbols :   Thunderstorms  Fog  Heavy snow  Heavy precipitations  Wind > 20 kt






- Airport Elevation : 586 ft


KEET - Shelby County

CURRENT METAR :
  • 041853Z AUTO VRB05KT 10SM CLR 31/19 A2997 RMK AO2 SLP141 T03110189

EXPIRED METARs :
  • 041753Z AUTO 27006KT 10SM FEW042 31/22 A2999 RMK AO2 SLP146 T03060217 10306 20222 57004
  • 041653Z AUTO 25003KT 10SM FEW055 FEW070 SCT090 30/21 A2999 RMK AO2 SLP148 T03000211

TAF KEET
Valid from the 04 at 18:00 until the 05 at 18:00 UTC


041721Z 0418/0518 25006KT P6SM VCSH SCT050
FM050000 00000KT P6SM FEW250
KZTL FIR / North America



MET'MAP, your aeronautical weather chart ! - Copyright ORBIFLY December 2007 - Disclaimer

ORBIFLY MET'MAP TEAM :

Programming & Development : Alexandra Zaïnal
Concept & original design : Baudouin d'Aumeries
Assistance for programming : Marc-Olivier Méhu
Technical & hardware support : Manuel Goepfert

Contact : metmap@orbifly.com




SOURCES & CREDITS :

   NOAA       Earth
Advisory